sensor_id;sensor_type;location;lat;lon;timestamp;P1;durP1;ratioP1;P2;durP2;ratioP2
34767;SDS011;21755;43.608;1.236;2024-01-15T00:00:43;5.70;;;2.97;;
34767;SDS011;21755;43.608;1.236;2024-01-15T00:03:09;7.25;;;3.65;;
34767;SDS011;21755;43.608;1.236;2024-01-15T00:05:35;10.95;;;3.65;;
34767;SDS011;21755;43.608;1.236;2024-01-15T00:08:01;4.90;;;3.38;;
34767;SDS011;21755;43.608;1.236;2024-01-15T00:10:27;7.00;;;3.10;;
34767;SDS011;21755;43.608;1.236;2024-01-15T00:12:53;5.90;;;3.28;;
34767;SDS011;21755;43.608;1.236;2024-01-15T00:15:19;7.03;;;3.45;;
34767;SDS011;21755;43.608;1.236;2024-01-15T00:17:45;9.25;;;3.47;;
34767;SDS011;21755;43.608;1.236;2024-01-15T00:20:11;9.18;;;3.75;;
34767;SDS011;21755;43.608;1.236;2024-01-15T00:22:37;6.03;;;3.10;;
34767;SDS011;21755;43.608;1.236;2024-01-15T00:25:03;7.88;;;3.75;;
34767;SDS011;21755;43.608;1.236;2024-01-15T00:27:29;10.43;;;3.22;;
34767;SDS011;21755;43.608;1.236;2024-01-15T00:29:55;6.97;;;3.60;;
34767;SDS011;21755;43.608;1.236;2024-01-15T00:32:21;6.72;;;3.67;;
34767;SDS011;21755;43.608;1.236;2024-01-15T00:34:47;5.07;;;3.15;;
34767;SDS011;21755;43.608;1.236;2024-01-15T00:37:13;8.20;;;3.42;;
34767;SDS011;21755;43.608;1.236;2024-01-15T00:39:38;7.03;;;3.38;;
34767;SDS011;21755;43.608;1.236;2024-01-15T00:42:04;9.00;;;3.58;;
34767;SDS011;21755;43.608;1.236;2024-01-15T00:44:30;8.07;;;3.50;;
34767;SDS011;21755;43.608;1.236;2024-01-15T00:46:56;9.00;;;4.25;;
34767;SDS011;21755;43.608;1.236;2024-01-15T00:49:22;10.15;;;3.33;;
34767;SDS011;21755;43.608;1.236;2024-01-15T00:51:48;5.18;;;2.83;;
34767;SDS011;21755;43.608;1.236;2024-01-15T00:54:14;7.93;;;3.65;;
34767;SDS011;21755;43.608;1.236;2024-01-15T00:56:40;6.05;;;2.95;;
34767;SDS011;21755;43.608;1.236;2024-01-15T00:59:06;6.30;;;3.58;;
34767;SDS011;21755;43.608;1.236;2024-01-15T01:01:32;8.52;;;3.85;;
34767;SDS011;21755;43.608;1.236;2024-01-15T01:03:58;10.07;;;4.00;;
34767;SDS011;21755;43.608;1.236;2024-01-15T01:06:24;7.30;;;3.70;;
34767;SDS011;21755;43.608;1.236;2024-01-15T01:08:50;7.35;;;3.60;;
34767;SDS011;21755;43.608;1.236;2024-01-15T01:11:16;7.22;;;3.95;;
34767;SDS011;21755;43.608;1.236;2024-01-15T01:13:42;6.32;;;3.70;;
34767;SDS011;21755;43.608;1.236;2024-01-15T01:16:08;10.23;;;3.47;;
34767;SDS011;21755;43.608;1.236;2024-01-15T01:18:34;7.82;;;4.10;;
34767;SDS011;21755;43.608;1.236;2024-01-15T01:21:00;7.32;;;4.15;;
34767;SDS011;21755;43.608;1.236;2024-01-15T01:23:26;8.52;;;3.38;;
34767;SDS011;21755;43.608;1.236;2024-01-15T01:25:52;4.85;;;3.38;;
34767;SDS011;21755;43.608;1.236;2024-01-15T01:28:18;6.00;;;3.47;;
34767;SDS011;21755;43.608;1.236;2024-01-15T01:30:43;6.57;;;3.40;;
34767;SDS011;21755;43.608;1.236;2024-01-15T01:33:09;6.85;;;3.35;;
34767;SDS011;21755;43.608;1.236;2024-01-15T01:35:35;4.72;;;3.25;;
34767;SDS011;21755;43.608;1.236;2024-01-15T01:38:01;6.32;;;3.88;;
34767;SDS011;21755;43.608;1.236;2024-01-15T01:40:27;7.50;;;3.40;;
34767;SDS011;21755;43.608;1.236;2024-01-15T01:42:53;6.55;;;3.38;;
34767;SDS011;21755;43.608;1.236;2024-01-15T01:45:19;8.70;;;3.35;;
34767;SDS011;21755;43.608;1.236;2024-01-15T01:47:45;7.13;;;3.50;;
34767;SDS011;21755;43.608;1.236;2024-01-15T01:50:11;5.28;;;3.40;;
34767;SDS011;21755;43.608;1.236;2024-01-15T01:52:38;6.22;;;3.40;;
34767;SDS011;21755;43.608;1.236;2024-01-15T01:55:05;8.63;;;3.17;;
34767;SDS011;21755;43.608;1.236;2024-01-15T01:57:32;4.88;;;3.25;;
34767;SDS011;21755;43.608;1.236;2024-01-15T02:00:00;6.05;;;2.78;;
34767;SDS011;21755;43.608;1.236;2024-01-15T02:02:29;9.35;;;3.45;;
34767;SDS011;21755;43.608;1.236;2024-01-15T02:04:56;6.88;;;3.55;;
34767;SDS011;21755;43.608;1.236;2024-01-15T02:07:22;8.13;;;3.58;;
34767;SDS011;21755;43.608;1.236;2024-01-15T02:09:49;4.60;;;2.72;;
34767;SDS011;21755;43.608;1.236;2024-01-15T02:12:15;7.82;;;3.45;;
34767;SDS011;21755;43.608;1.236;2024-01-15T02:14:41;5.68;;;2.97;;
34767;SDS011;21755;43.608;1.236;2024-01-15T02:17:07;5.43;;;3.03;;
34767;SDS011;21755;43.608;1.236;2024-01-15T02:19:33;4.40;;;2.78;;
34767;SDS011;21755;43.608;1.236;2024-01-15T02:21:58;5.50;;;3.38;;
34767;SDS011;21755;43.608;1.236;2024-01-15T02:24:24;4.90;;;2.97;;
34767;SDS011;21755;43.608;1.236;2024-01-15T02:26:50;5.03;;;3.15;;
34767;SDS011;21755;43.608;1.236;2024-01-15T02:29:16;6.88;;;3.13;;
34767;SDS011;21755;43.608;1.236;2024-01-15T02:31:43;7.45;;;3.83;;
34767;SDS011;21755;43.608;1.236;2024-01-15T02:34:09;6.65;;;3.08;;
34767;SDS011;21755;43.608;1.236;2024-01-15T02:36:34;5.30;;;3.53;;
34767;SDS011;21755;43.608;1.236;2024-01-15T02:39:00;6.10;;;3.60;;
34767;SDS011;21755;43.608;1.236;2024-01-15T02:41:26;7.35;;;3.65;;
34767;SDS011;21755;43.608;1.236;2024-01-15T02:43:52;9.15;;;3.85;;
34767;SDS011;21755;43.608;1.236;2024-01-15T02:46:18;5.45;;;3.33;;
34767;SDS011;21755;43.608;1.236;2024-01-15T02:48:44;9.13;;;3.58;;
34767;SDS011;21755;43.608;1.236;2024-01-15T02:51:10;6.47;;;3.65;;
34767;SDS011;21755;43.608;1.236;2024-01-15T02:53:36;7.00;;;3.55;;
34767;SDS011;21755;43.608;1.236;2024-01-15T02:56:02;6.13;;;3.65;;
34767;SDS011;21755;43.608;1.236;2024-01-15T02:58:28;5.25;;;3.78;;
34767;SDS011;21755;43.608;1.236;2024-01-15T03:00:54;7.70;;;4.55;;
34767;SDS011;21755;43.608;1.236;2024-01-15T03:03:20;10.60;;;4.40;;
34767;SDS011;21755;43.608;1.236;2024-01-15T03:05:46;8.23;;;4.45;;
34767;SDS011;21755;43.608;1.236;2024-01-15T03:08:12;9.38;;;4.05;;
34767;SDS011;21755;43.608;1.236;2024-01-15T03:10:38;6.68;;;3.60;;
34767;SDS011;21755;43.608;1.236;2024-01-15T03:13:04;7.20;;;4.25;;
34767;SDS011;21755;43.608;1.236;2024-01-15T03:15:30;10.27;;;4.68;;
34767;SDS011;21755;43.608;1.236;2024-01-15T03:17:55;9.25;;;4.72;;
34767;SDS011;21755;43.608;1.236;2024-01-15T03:20:21;9.45;;;4.78;;
34767;SDS011;21755;43.608;1.236;2024-01-15T03:22:47;8.25;;;4.80;;
34767;SDS011;21755;43.608;1.236;2024-01-15T03:25:13;12.35;;;5.50;;
34767;SDS011;21755;43.608;1.236;2024-01-15T03:27:39;10.05;;;5.13;;
34767;SDS011;21755;43.608;1.236;2024-01-15T03:30:05;8.07;;;4.85;;
34767;SDS011;21755;43.608;1.236;2024-01-15T03:32:32;9.48;;;5.38;;
34767;SDS011;21755;43.608;1.236;2024-01-15T03:34:58;9.23;;;4.88;;
34767;SDS011;21755;43.608;1.236;2024-01-15T03:37:24;8.52;;;4.63;;
34767;SDS011;21755;43.608;1.236;2024-01-15T03:39:49;6.53;;;4.30;;
34767;SDS011;21755;43.608;1.236;2024-01-15T03:42:15;9.98;;;4.45;;
34767;SDS011;21755;43.608;1.236;2024-01-15T03:44:41;9.77;;;4.82;;
34767;SDS011;21755;43.608;1.236;2024-01-15T03:47:07;8.18;;;4.03;;
34767;SDS011;21755;43.608;1.236;2024-01-15T03:49:33;9.15;;;4.40;;
34767;SDS011;21755;43.608;1.236;2024-01-15T03:51:59;7.57;;;4.50;;
34767;SDS011;21755;43.608;1.236;2024-01-15T03:54:25;8.85;;;4.22;;
34767;SDS011;21755;43.608;1.236;2024-01-15T03:56:51;8.48;;;4.20;;
34767;SDS011;21755;43.608;1.236;2024-01-15T03:59:17;5.35;;;3.60;;
34767;SDS011;21755;43.608;1.236;2024-01-15T04:01:49;6.25;;;3.92;;
34767;SDS011;21755;43.608;1.236;2024-01-15T04:04:16;7.88;;;4.05;;
34767;SDS011;21755;43.608;1.236;2024-01-15T04:06:42;9.27;;;4.60;;
34767;SDS011;21755;43.608;1.236;2024-01-15T04:09:08;7.60;;;4.30;;
34767;SDS011;21755;43.608;1.236;2024-01-15T04:11:34;8.75;;;4.65;;
34767;SDS011;21755;43.608;1.236;2024-01-15T04:14:00;8.40;;;4.30;;
34767;SDS011;21755;43.608;1.236;2024-01-15T04:16:26;8.07;;;3.90;;
34767;SDS011;21755;43.608;1.236;2024-01-15T04:18:51;8.25;;;4.55;;
34767;SDS011;21755;43.608;1.236;2024-01-15T04:21:17;8.45;;;4.95;;
34767;SDS011;21755;43.608;1.236;2024-01-15T04:23:43;9.88;;;4.05;;
34767;SDS011;21755;43.608;1.236;2024-01-15T04:26:09;6.68;;;4.30;;
34767;SDS011;21755;43.608;1.236;2024-01-15T04:28:35;8.10;;;4.20;;
34767;SDS011;21755;43.608;1.236;2024-01-15T04:31:01;6.32;;;4.13;;
34767;SDS011;21755;43.608;1.236;2024-01-15T04:33:27;7.72;;;4.10;;
34767;SDS011;21755;43.608;1.236;2024-01-15T04:35:53;5.43;;;3.90;;
34767;SDS011;21755;43.608;1.236;2024-01-15T04:38:19;7.55;;;4.22;;
34767;SDS011;21755;43.608;1.236;2024-01-15T04:40:44;7.57;;;4.00;;
34767;SDS011;21755;43.608;1.236;2024-01-15T04:43:10;8.00;;;3.95;;
34767;SDS011;21755;43.608;1.236;2024-01-15T04:45:36;8.02;;;3.42;;
34767;SDS011;21755;43.608;1.236;2024-01-15T04:48:02;7.03;;;4.00;;
34767;SDS011;21755;43.608;1.236;2024-01-15T04:50:28;7.10;;;3.20;;
34767;SDS011;21755;43.608;1.236;2024-01-15T04:52:54;7.00;;;4.00;;
34767;SDS011;21755;43.608;1.236;2024-01-15T04:55:20;5.53;;;3.55;;
34767;SDS011;21755;43.608;1.236;2024-01-15T04:57:46;5.65;;;3.50;;
34767;SDS011;21755;43.608;1.236;2024-01-15T05:00:12;6.72;;;3.80;;
34767;SDS011;21755;43.608;1.236;2024-01-15T05:02:39;6.78;;;4.10;;
34767;SDS011;21755;43.608;1.236;2024-01-15T05:05:04;6.65;;;3.88;;
34767;SDS011;21755;43.608;1.236;2024-01-15T05:07:30;7.07;;;3.60;;
34767;SDS011;21755;43.608;1.236;2024-01-15T05:09:56;8.52;;;4.25;;
34767;SDS011;21755;43.608;1.236;2024-01-15T05:12:23;5.63;;;3.60;;
34767;SDS011;21755;43.608;1.236;2024-01-15T05:14:49;6.53;;;3.38;;
34767;SDS011;21755;43.608;1.236;2024-01-15T05:17:15;8.07;;;4.07;;
34767;SDS011;21755;43.608;1.236;2024-01-15T05:19:41;8.43;;;4.10;;
34767;SDS011;21755;43.608;1.236;2024-01-15T05:22:07;6.45;;;3.80;;
34767;SDS011;21755;43.608;1.236;2024-01-15T05:24:32;6.75;;;3.83;;
34767;SDS011;21755;43.608;1.236;2024-01-15T05:26:58;6.60;;;3.60;;
34767;SDS011;21755;43.608;1.236;2024-01-15T05:29:24;7.70;;;3.90;;
34767;SDS011;21755;43.608;1.236;2024-01-15T05:31:50;5.40;;;3.83;;
34767;SDS011;21755;43.608;1.236;2024-01-15T05:34:16;6.47;;;3.95;;
34767;SDS011;21755;43.608;1.236;2024-01-15T05:36:42;5.85;;;3.70;;
34767;SDS011;21755;43.608;1.236;2024-01-15T05:39:08;5.28;;;3.45;;
34767;SDS011;21755;43.608;1.236;2024-01-15T05:41:34;7.13;;;3.90;;
34767;SDS011;21755;43.608;1.236;2024-01-15T05:44:00;6.60;;;4.20;;
34767;SDS011;21755;43.608;1.236;2024-01-15T05:46:25;9.20;;;3.83;;
34767;SDS011;21755;43.608;1.236;2024-01-15T05:48:51;5.32;;;3.60;;
34767;SDS011;21755;43.608;1.236;2024-01-15T05:51:17;6.05;;;3.65;;
34767;SDS011;21755;43.608;1.236;2024-01-15T05:53:43;6.53;;;3.75;;
34767;SDS011;21755;43.608;1.236;2024-01-15T05:56:09;5.05;;;3.53;;
34767;SDS011;21755;43.608;1.236;2024-01-15T05:58:36;5.55;;;3.58;;
34767;SDS011;21755;43.608;1.236;2024-01-15T06:01:02;6.93;;;3.75;;
34767;SDS011;21755;43.608;1.236;2024-01-15T06:03:28;6.18;;;3.97;;
34767;SDS011;21755;43.608;1.236;2024-01-15T06:05:54;5.57;;;3.45;;
34767;SDS011;21755;43.608;1.236;2024-01-15T06:08:20;5.93;;;3.67;;
34767;SDS011;21755;43.608;1.236;2024-01-15T06:10:46;6.32;;;3.80;;
34767;SDS011;21755;43.608;1.236;2024-01-15T06:13:12;7.43;;;3.67;;
34767;SDS011;21755;43.608;1.236;2024-01-15T06:15:38;8.70;;;4.25;;
34767;SDS011;21755;43.608;1.236;2024-01-15T06:18:04;8.00;;;4.20;;
34767;SDS011;21755;43.608;1.236;2024-01-15T06:20:30;6.90;;;4.13;;
34767;SDS011;21755;43.608;1.236;2024-01-15T06:22:56;5.43;;;3.80;;
34767;SDS011;21755;43.608;1.236;2024-01-15T06:25:22;7.85;;;4.20;;
34767;SDS011;21755;43.608;1.236;2024-01-15T06:27:48;7.75;;;4.60;;
34767;SDS011;21755;43.608;1.236;2024-01-15T06:30:14;6.88;;;4.07;;
34767;SDS011;21755;43.608;1.236;2024-01-15T06:32:40;8.50;;;4.45;;
34767;SDS011;21755;43.608;1.236;2024-01-15T06:35:06;8.15;;;4.55;;
34767;SDS011;21755;43.608;1.236;2024-01-15T06:37:32;8.70;;;4.50;;
34767;SDS011;21755;43.608;1.236;2024-01-15T06:39:58;9.07;;;4.25;;
34767;SDS011;21755;43.608;1.236;2024-01-15T06:42:24;7.15;;;3.97;;
34767;SDS011;21755;43.608;1.236;2024-01-15T06:44:50;11.15;;;4.25;;
34767;SDS011;21755;43.608;1.236;2024-01-15T06:47:16;8.63;;;4.15;;
34767;SDS011;21755;43.608;1.236;2024-01-15T06:49:42;6.68;;;4.32;;
34767;SDS011;21755;43.608;1.236;2024-01-15T06:52:08;8.38;;;4.18;;
34767;SDS011;21755;43.608;1.236;2024-01-15T06:54:34;8.68;;;4.32;;
34767;SDS011;21755;43.608;1.236;2024-01-15T06:57:00;8.68;;;5.28;;
34767;SDS011;21755;43.608;1.236;2024-01-15T06:59:26;8.82;;;4.53;;
34767;SDS011;21755;43.608;1.236;2024-01-15T07:01:52;11.70;;;6.07;;
34767;SDS011;21755;43.608;1.236;2024-01-15T07:04:18;9.80;;;5.15;;
34767;SDS011;21755;43.608;1.236;2024-01-15T07:06:44;10.68;;;5.07;;
34767;SDS011;21755;43.608;1.236;2024-01-15T07:09:10;10.93;;;5.85;;
34767;SDS011;21755;43.608;1.236;2024-01-15T07:11:36;12.55;;;5.38;;
34767;SDS011;21755;43.608;1.236;2024-01-15T07:14:02;10.43;;;5.28;;
34767;SDS011;21755;43.608;1.236;2024-01-15T07:16:28;16.83;;;5.78;;
34767;SDS011;21755;43.608;1.236;2024-01-15T07:18:54;9.80;;;5.55;;
34767;SDS011;21755;43.608;1.236;2024-01-15T07:21:19;9.38;;;4.95;;
34767;SDS011;21755;43.608;1.236;2024-01-15T07:23:45;12.60;;;5.72;;
34767;SDS011;21755;43.608;1.236;2024-01-15T07:26:11;13.43;;;5.82;;
34767;SDS011;21755;43.608;1.236;2024-01-15T07:28:37;12.05;;;5.93;;
34767;SDS011;21755;43.608;1.236;2024-01-15T07:31:03;14.85;;;7.70;;
34767;SDS011;21755;43.608;1.236;2024-01-15T07:33:31;13.20;;;7.22;;
34767;SDS011;21755;43.608;1.236;2024-01-15T07:35:57;12.10;;;6.53;;
34767;SDS011;21755;43.608;1.236;2024-01-15T07:38:23;10.05;;;6.30;;
34767;SDS011;21755;43.608;1.236;2024-01-15T07:40:49;15.65;;;6.97;;
34767;SDS011;21755;43.608;1.236;2024-01-15T07:43:15;15.77;;;6.70;;
34767;SDS011;21755;43.608;1.236;2024-01-15T07:45:41;39.53;;;15.35;;
34767;SDS011;21755;43.608;1.236;2024-01-15T07:48:07;45.85;;;16.27;;
34767;SDS011;21755;43.608;1.236;2024-01-15T07:50:33;43.38;;;17.15;;
34767;SDS011;21755;43.608;1.236;2024-01-15T07:52:58;49.30;;;18.88;;
34767;SDS011;21755;43.608;1.236;2024-01-15T07:55:24;52.40;;;19.42;;
34767;SDS011;21755;43.608;1.236;2024-01-15T07:57:50;48.17;;;19.27;;
34767;SDS011;21755;43.608;1.236;2024-01-15T08:00:18;48.97;;;20.48;;
34767;SDS011;21755;43.608;1.236;2024-01-15T08:02:43;51.45;;;19.70;;
34767;SDS011;21755;43.608;1.236;2024-01-15T08:05:09;59.67;;;21.63;;
34767;SDS011;21755;43.608;1.236;2024-01-15T08:07:35;69.13;;;23.45;;
34767;SDS011;21755;43.608;1.236;2024-01-15T08:10:01;59.75;;;23.23;;
34767;SDS011;21755;43.608;1.236;2024-01-15T08:12:42;62.20;;;23.75;;
34767;SDS011;21755;43.608;1.236;2024-01-15T08:15:18;77.07;;;26.95;;
34767;SDS011;21755;43.608;1.236;2024-01-15T08:17:45;77.05;;;27.10;;
34767;SDS011;21755;43.608;1.236;2024-01-15T08:20:11;69.50;;;24.48;;
34767;SDS011;21755;43.608;1.236;2024-01-15T08:22:38;72.82;;;26.50;;
34767;SDS011;21755;43.608;1.236;2024-01-15T08:25:04;59.65;;;25.17;;
34767;SDS011;21755;43.608;1.236;2024-01-15T08:27:30;57.00;;;23.95;;
34767;SDS011;21755;43.608;1.236;2024-01-15T08:29:56;68.40;;;26.05;;
34767;SDS011;21755;43.608;1.236;2024-01-15T08:32:22;69.60;;;26.05;;
34767;SDS011;21755;43.608;1.236;2024-01-15T08:34:48;65.88;;;27.63;;
34767;SDS011;21755;43.608;1.236;2024-01-15T08:37:17;59.95;;;25.42;;
34767;SDS011;21755;43.608;1.236;2024-01-15T08:39:44;56.35;;;24.77;;
34767;SDS011;21755;43.608;1.236;2024-01-15T08:42:10;56.20;;;23.95;;
34767;SDS011;21755;43.608;1.236;2024-01-15T08:44:36;51.60;;;24.60;;
34767;SDS011;21755;43.608;1.236;2024-01-15T08:47:04;68.15;;;25.75;;
34767;SDS011;21755;43.608;1.236;2024-01-15T08:49:30;69.93;;;26.25;;
34767;SDS011;21755;43.608;1.236;2024-01-15T08:51:56;71.70;;;28.75;;
34767;SDS011;21755;43.608;1.236;2024-01-15T08:54:22;66.75;;;26.85;;
34767;SDS011;21755;43.608;1.236;2024-01-15T08:56:48;62.35;;;26.08;;
34767;SDS011;21755;43.608;1.236;2024-01-15T08:59:13;69.63;;;27.33;;
34767;SDS011;21755;43.608;1.236;2024-01-15T09:01:39;62.75;;;24.48;;
34767;SDS011;21755;43.608;1.236;2024-01-15T09:04:05;61.40;;;24.52;;
34767;SDS011;21755;43.608;1.236;2024-01-15T09:06:31;65.55;;;26.77;;
34767;SDS011;21755;43.608;1.236;2024-01-15T09:08:58;59.90;;;25.98;;
34767;SDS011;21755;43.608;1.236;2024-01-15T09:11:24;61.47;;;25.27;;
34767;SDS011;21755;43.608;1.236;2024-01-15T09:13:49;65.88;;;27.83;;
34767;SDS011;21755;43.608;1.236;2024-01-15T09:16:17;60.30;;;26.35;;
34767;SDS011;21755;43.608;1.236;2024-01-15T09:18:42;62.85;;;26.55;;
34767;SDS011;21755;43.608;1.236;2024-01-15T09:21:09;62.33;;;27.13;;
34767;SDS011;21755;43.608;1.236;2024-01-15T09:23:35;54.83;;;24.13;;
34767;SDS011;21755;43.608;1.236;2024-01-15T09:26:00;54.03;;;23.58;;
34767;SDS011;21755;43.608;1.236;2024-01-15T09:28:26;44.22;;;22.75;;
34767;SDS011;21755;43.608;1.236;2024-01-15T09:30:53;53.35;;;23.42;;
34767;SDS011;21755;43.608;1.236;2024-01-15T09:33:18;50.88;;;22.75;;
34767;SDS011;21755;43.608;1.236;2024-01-15T09:35:44;60.17;;;26.15;;
34767;SDS011;21755;43.608;1.236;2024-01-15T09:38:10;53.97;;;24.38;;
34767;SDS011;21755;43.608;1.236;2024-01-15T09:40:36;48.50;;;23.02;;
34767;SDS011;21755;43.608;1.236;2024-01-15T09:43:08;52.97;;;24.48;;
34767;SDS011;21755;43.608;1.236;2024-01-15T09:45:35;58.42;;;26.75;;
34767;SDS011;21755;43.608;1.236;2024-01-15T09:48:01;56.45;;;25.85;;
34767;SDS011;21755;43.608;1.236;2024-01-15T09:50:27;53.65;;;24.17;;
34767;SDS011;21755;43.608;1.236;2024-01-15T09:52:53;50.20;;;23.52;;
34767;SDS011;21755;43.608;1.236;2024-01-15T09:55:22;46.92;;;21.98;;
34767;SDS011;21755;43.608;1.236;2024-01-15T09:57:58;44.90;;;21.77;;
34767;SDS011;21755;43.608;1.236;2024-01-15T10:00:27;46.70;;;22.80;;
34767;SDS011;21755;43.608;1.236;2024-01-15T10:02:55;44.45;;;23.15;;
34767;SDS011;21755;43.608;1.236;2024-01-15T10:05:21;47.97;;;22.75;;
34767;SDS011;21755;43.608;1.236;2024-01-15T10:07:48;43.63;;;20.42;;
34767;SDS011;21755;43.608;1.236;2024-01-15T10:10:15;44.88;;;21.08;;
34767;SDS011;21755;43.608;1.236;2024-01-15T10:12:41;40.05;;;21.25;;
34767;SDS011;21755;43.608;1.236;2024-01-15T10:15:11;48.42;;;22.23;;
34767;SDS011;21755;43.608;1.236;2024-01-15T10:17:38;44.83;;;20.60;;
34767;SDS011;21755;43.608;1.236;2024-01-15T10:20:13;39.90;;;21.15;;
34767;SDS011;21755;43.608;1.236;2024-01-15T10:22:42;44.22;;;21.48;;
34767;SDS011;21755;43.608;1.236;2024-01-15T10:25:12;44.08;;;21.73;;
34767;SDS011;21755;43.608;1.236;2024-01-15T10:27:39;41.17;;;20.80;;
34767;SDS011;21755;43.608;1.236;2024-01-15T10:30:07;41.65;;;20.17;;
34767;SDS011;21755;43.608;1.236;2024-01-15T10:32:36;42.20;;;20.85;;
34767;SDS011;21755;43.608;1.236;2024-01-15T10:35:03;40.55;;;20.40;;
34767;SDS011;21755;43.608;1.236;2024-01-15T10:37:32;38.28;;;21.20;;
34767;SDS011;21755;43.608;1.236;2024-01-15T10:40:01;40.78;;;20.23;;
34767;SDS011;21755;43.608;1.236;2024-01-15T10:42:30;46.03;;;22.20;;
34767;SDS011;21755;43.608;1.236;2024-01-15T10:44:56;38.92;;;20.42;;
34767;SDS011;21755;43.608;1.236;2024-01-15T10:47:22;41.15;;;20.65;;
34767;SDS011;21755;43.608;1.236;2024-01-15T10:49:48;40.15;;;19.50;;
34767;SDS011;21755;43.608;1.236;2024-01-15T10:52:15;43.35;;;20.38;;
34767;SDS011;21755;43.608;1.236;2024-01-15T10:54:41;41.72;;;20.00;;
34767;SDS011;21755;43.608;1.236;2024-01-15T10:57:08;39.70;;;19.85;;
34767;SDS011;21755;43.608;1.236;2024-01-15T10:59:34;36.40;;;19.52;;
34767;SDS011;21755;43.608;1.236;2024-01-15T11:02:01;36.38;;;19.98;;
34767;SDS011;21755;43.608;1.236;2024-01-15T11:04:27;36.38;;;20.33;;
34767;SDS011;21755;43.608;1.236;2024-01-15T11:06:57;35.90;;;20.42;;
34767;SDS011;21755;43.608;1.236;2024-01-15T11:09:23;38.53;;;21.67;;
34767;SDS011;21755;43.608;1.236;2024-01-15T11:11:51;44.33;;;23.70;;
34767;SDS011;21755;43.608;1.236;2024-01-15T11:14:35;42.88;;;23.80;;
34767;SDS011;21755;43.608;1.236;2024-01-15T11:17:05;123.13;;;75.80;;
34767;SDS011;21755;43.608;1.236;2024-01-15T11:19:47;60.72;;;34.15;;
34767;SDS011;21755;43.608;1.236;2024-01-15T11:24:54;58.83;;;30.60;;
34767;SDS011;21755;43.608;1.236;2024-01-15T11:27:40;49.80;;;26.42;;
34767;SDS011;21755;43.608;1.236;2024-01-15T11:30:12;49.13;;;27.50;;
34767;SDS011;21755;43.608;1.236;2024-01-15T11:32:38;54.33;;;32.80;;
34767;SDS011;21755;43.608;1.236;2024-01-15T11:35:09;57.53;;;34.22;;
34767;SDS011;21755;43.608;1.236;2024-01-15T11:40:20;69.85;;;42.00;;
34767;SDS011;21755;43.608;1.236;2024-01-15T11:42:47;50.20;;;30.83;;
34767;SDS011;21755;43.608;1.236;2024-01-15T11:45:20;44.75;;;25.65;;
34767;SDS011;21755;43.608;1.236;2024-01-15T11:53:22;51.10;;;29.25;;
34767;SDS011;21755;43.608;1.236;2024-01-15T11:55:53;37.63;;;23.13;;
34767;SDS011;21755;43.608;1.236;2024-01-15T11:58:24;45.25;;;22.85;;
34767;SDS011;21755;43.608;1.236;2024-01-15T12:00:51;44.03;;;23.20;;
34767;SDS011;21755;43.608;1.236;2024-01-15T12:03:20;48.38;;;23.25;;
34767;SDS011;21755;43.608;1.236;2024-01-15T12:05:49;38.78;;;22.92;;
34767;SDS011;21755;43.608;1.236;2024-01-15T12:08:21;39.42;;;22.17;;
34767;SDS011;21755;43.608;1.236;2024-01-15T12:10:47;39.38;;;21.95;;
34767;SDS011;21755;43.608;1.236;2024-01-15T12:13:14;39.55;;;21.33;;
34767;SDS011;21755;43.608;1.236;2024-01-15T12:15:41;34.92;;;20.48;;
34767;SDS011;21755;43.608;1.236;2024-01-15T12:18:09;35.08;;;21.88;;
34767;SDS011;21755;43.608;1.236;2024-01-15T12:20:39;37.63;;;22.00;;
34767;SDS011;21755;43.608;1.236;2024-01-15T12:23:05;40.28;;;22.38;;
34767;SDS011;21755;43.608;1.236;2024-01-15T12:25:32;39.13;;;22.75;;
34767;SDS011;21755;43.608;1.236;2024-01-15T12:27:59;38.35;;;21.98;;
34767;SDS011;21755;43.608;1.236;2024-01-15T12:30:26;34.90;;;20.63;;
34767;SDS011;21755;43.608;1.236;2024-01-15T12:32:53;34.95;;;20.85;;
34767;SDS011;21755;43.608;1.236;2024-01-15T12:35:19;35.63;;;21.63;;
34767;SDS011;21755;43.608;1.236;2024-01-15T12:37:45;39.90;;;21.00;;
34767;SDS011;21755;43.608;1.236;2024-01-15T12:40:11;37.58;;;20.23;;
34767;SDS011;21755;43.608;1.236;2024-01-15T12:42:39;32.17;;;18.52;;
34767;SDS011;21755;43.608;1.236;2024-01-15T12:45:05;34.65;;;18.80;;
34767;SDS011;21755;43.608;1.236;2024-01-15T12:47:32;34.95;;;19.77;;
34767;SDS011;21755;43.608;1.236;2024-01-15T12:49:58;37.33;;;19.15;;
34767;SDS011;21755;43.608;1.236;2024-01-15T12:52:27;35.10;;;18.50;;
34767;SDS011;21755;43.608;1.236;2024-01-15T12:54:54;31.70;;;17.73;;
34767;SDS011;21755;43.608;1.236;2024-01-15T12:57:20;33.25;;;17.35;;
34767;SDS011;21755;43.608;1.236;2024-01-15T12:59:46;27.40;;;16.45;;
34767;SDS011;21755;43.608;1.236;2024-01-15T13:02:15;31.55;;;17.38;;
34767;SDS011;21755;43.608;1.236;2024-01-15T13:04:41;30.63;;;17.10;;
34767;SDS011;21755;43.608;1.236;2024-01-15T13:07:08;33.50;;;18.10;;
34767;SDS011;21755;43.608;1.236;2024-01-15T13:09:34;37.90;;;20.98;;
34767;SDS011;21755;43.608;1.236;2024-01-15T13:12:03;30.80;;;16.05;;
34767;SDS011;21755;43.608;1.236;2024-01-15T13:14:30;24.77;;;13.30;;
34767;SDS011;21755;43.608;1.236;2024-01-15T13:16:56;23.67;;;13.70;;
34767;SDS011;21755;43.608;1.236;2024-01-15T13:19:23;26.63;;;14.40;;
34767;SDS011;21755;43.608;1.236;2024-01-15T13:21:49;24.73;;;14.35;;
34767;SDS011;21755;43.608;1.236;2024-01-15T13:24:17;32.47;;;16.58;;
34767;SDS011;21755;43.608;1.236;2024-01-15T13:26:43;30.90;;;16.95;;
34767;SDS011;21755;43.608;1.236;2024-01-15T13:29:09;39.50;;;21.58;;
34767;SDS011;21755;43.608;1.236;2024-01-15T13:31:35;35.15;;;18.42;;
34767;SDS011;21755;43.608;1.236;2024-01-15T13:34:00;39.42;;;21.15;;
34767;SDS011;21755;43.608;1.236;2024-01-15T13:36:27;36.63;;;18.25;;
34767;SDS011;21755;43.608;1.236;2024-01-15T13:38:53;29.98;;;15.82;;
34767;SDS011;21755;43.608;1.236;2024-01-15T13:41:22;27.35;;;15.13;;
34767;SDS011;21755;43.608;1.236;2024-01-15T13:43:54;26.95;;;13.82;;
34767;SDS011;21755;43.608;1.236;2024-01-15T13:46:24;23.50;;;13.60;;
34767;SDS011;21755;43.608;1.236;2024-01-15T13:48:54;25.42;;;13.20;;
34767;SDS011;21755;43.608;1.236;2024-01-15T13:51:23;27.02;;;14.75;;
34767;SDS011;21755;43.608;1.236;2024-01-15T13:53:50;21.67;;;12.90;;
34767;SDS011;21755;43.608;1.236;2024-01-15T13:56:16;20.23;;;9.00;;
34767;SDS011;21755;43.608;1.236;2024-01-15T13:58:42;17.88;;;9.85;;
34767;SDS011;21755;43.608;1.236;2024-01-15T14:01:08;16.85;;;8.73;;
34767;SDS011;21755;43.608;1.236;2024-01-15T14:03:34;25.17;;;11.27;;
34767;SDS011;21755;43.608;1.236;2024-01-15T14:06:00;25.17;;;11.82;;
34767;SDS011;21755;43.608;1.236;2024-01-15T14:08:33;25.42;;;11.43;;
34767;SDS011;21755;43.608;1.236;2024-01-15T14:11:03;13.23;;;7.30;;
34767;SDS011;21755;43.608;1.236;2024-01-15T14:13:31;8.07;;;5.70;;
34767;SDS011;21755;43.608;1.236;2024-01-15T14:15:57;13.75;;;8.63;;
34767;SDS011;21755;43.608;1.236;2024-01-15T14:18:23;9.07;;;4.70;;
34767;SDS011;21755;43.608;1.236;2024-01-15T14:20:49;7.80;;;5.50;;
34767;SDS011;21755;43.608;1.236;2024-01-15T14:23:15;5.82;;;4.30;;
34767;SDS011;21755;43.608;1.236;2024-01-15T14:25:41;6.80;;;4.93;;
34767;SDS011;21755;43.608;1.236;2024-01-15T14:28:07;6.55;;;4.45;;
34767;SDS011;21755;43.608;1.236;2024-01-15T14:30:33;5.35;;;4.05;;
34767;SDS011;21755;43.608;1.236;2024-01-15T14:32:59;3.08;;;2.55;;
34767;SDS011;21755;43.608;1.236;2024-01-15T14:35:24;4.32;;;2.30;;
34767;SDS011;21755;43.608;1.236;2024-01-15T14:37:50;7.80;;;3.17;;
34767;SDS011;21755;43.608;1.236;2024-01-15T14:40:16;4.97;;;3.22;;
34767;SDS011;21755;43.608;1.236;2024-01-15T14:42:43;8.60;;;4.90;;